createdAt,value
2023-05-08T00:00:08.226Z,81.29
2023-05-08T00:02:56.924Z,81.16
2023-05-08T00:05:27.427Z,80.90
2023-05-08T00:08:01.369Z,80.91
2023-05-08T00:10:30.957Z,81.06
2023-05-08T00:12:59.713Z,81.10
2023-05-08T00:15:28.666Z,81.57
2023-05-08T00:17:57.334Z,81.20
2023-05-08T00:20:27.999Z,81.05
2023-05-08T00:22:57.929Z,81.38
2023-05-08T00:25:28.235Z,80.47
2023-05-08T00:27:57.440Z,80.58
2023-05-08T00:30:26.808Z,81.23
2023-05-08T00:32:55.700Z,80.81
2023-05-08T00:35:24.855Z,81.27
2023-05-08T00:37:54.863Z,81.53
2023-05-08T00:40:23.971Z,80.71
2023-05-08T00:42:52.674Z,80.46
2023-05-08T00:45:22.030Z,80.55
2023-05-08T00:47:52.702Z,80.68
2023-05-08T00:50:21.896Z,81.03
2023-05-08T00:52:51.617Z,81.54
2023-05-08T00:55:23.162Z,81.74
2023-05-08T00:57:53.404Z,82.03
2023-05-08T01:00:23.371Z,81.26
2023-05-08T01:02:52.803Z,81.29
2023-05-08T01:05:21.857Z,82.01
2023-05-08T01:07:50.917Z,81.38
2023-05-08T01:10:21.315Z,82.08
2023-05-08T01:13:06.489Z,81.93
2023-05-08T01:15:48.689Z,81.38
2023-05-08T01:18:29.169Z,81.99
2023-05-08T01:21:08.343Z,82.11
2023-05-08T01:24:29.168Z,82.17
2023-05-08T01:27:41.826Z,81.69
2023-05-08T01:30:50.690Z,80.96
2023-05-08T01:33:28.279Z,81.75
2023-05-08T01:36:12.694Z,81.47
2023-05-08T01:38:53.077Z,82.64
2023-05-08T01:41:29.295Z,82.61
2023-05-08T01:44:13.905Z,82.81
2023-05-08T01:46:49.168Z,82.05
2023-05-08T01:49:27.500Z,81.27
2023-05-08T01:52:05.622Z,81.70
2023-05-08T01:54:43.927Z,82.39
2023-05-08T01:57:15.618Z,82.17
2023-05-08T01:59:47.670Z,82.32
2023-05-08T02:02:19.055Z,82.16
2023-05-08T02:04:53.300Z,81.45
2023-05-08T02:07:25.112Z,81.80
2023-05-08T02:09:59.074Z,82.00
2023-05-08T02:12:29.981Z,82.36
2023-05-08T02:15:01.421Z,82.25
2023-05-08T02:17:51.739Z,82.65
2023-05-08T02:20:23.688Z,82.70
2023-05-08T02:22:53.106Z,82.70
2023-05-08T02:25:23.360Z,82.18
2023-05-08T02:27:56.590Z,81.28
2023-05-08T02:30:27.576Z,80.92
2023-05-08T02:33:00.837Z,80.95
2023-05-08T02:35:33.230Z,80.87
2023-05-08T02:38:04.009Z,80.40
2023-05-08T02:40:34.264Z,80.07
2023-05-08T02:43:03.050Z,80.48
2023-05-08T02:45:44.681Z,80.44
2023-05-08T02:48:23.921Z,80.57
2023-05-08T02:51:04.150Z,79.95
2023-05-08T02:53:38.917Z,79.86
2023-05-08T02:56:18.810Z,80.75
2023-05-08T02:58:59.932Z,80.45
2023-05-08T03:01:37.386Z,80.31
2023-05-08T03:04:12.306Z,80.76
2023-05-08T03:06:48.023Z,80.78
2023-05-08T03:09:21.621Z,80.80
2023-05-08T03:12:00.462Z,81.34
2023-05-08T03:14:33.410Z,82.13
2023-05-08T03:17:08.786Z,82.23
2023-05-08T03:19:40.366Z,81.70
2023-05-08T03:22:12.583Z,82.15
2023-05-08T03:24:45.248Z,81.99
2023-05-08T03:27:17.158Z,82.40
2023-05-08T03:29:47.844Z,82.15
2023-05-08T03:32:19.382Z,81.60
2023-05-08T03:34:50.396Z,81.72
2023-05-08T03:37:21.258Z,81.95
2023-05-08T03:39:50.157Z,82.06
2023-05-08T03:42:22.136Z,82.79
2023-05-08T03:44:53.522Z,82.64
2023-05-08T03:47:24.271Z,82.45
2023-05-08T03:49:54.178Z,81.66
2023-05-08T03:52:25.747Z,82.00
2023-05-08T03:54:54.731Z,82.64
2023-05-08T03:57:32.554Z,83.15
2023-05-08T04:00:10.083Z,83.30
2023-05-08T04:03:09.182Z,83.52
2023-05-08T04:05:48.961Z,83.94
2023-05-08T04:08:27.103Z,84.53
2023-05-08T04:11:07.597Z,84.24
2023-05-08T04:13:46.986Z,84.55
2023-05-08T04:16:25.051Z,85.00
2023-05-08T04:19:03.401Z,85.01
2023-05-08T04:21:37.426Z,84.96
2023-05-08T04:24:13.583Z,85.68
2023-05-08T04:26:44.202Z,85.36
2023-05-08T04:29:14.325Z,86.02
2023-05-08T04:31:44.468Z,86.22
2023-05-08T04:34:14.905Z,87.00
2023-05-08T04:36:44.134Z,86.79
2023-05-08T04:39:14.554Z,86.94
2023-05-08T04:41:44.117Z,87.31
2023-05-08T04:44:14.539Z,86.66
2023-05-08T04:46:43.491Z,86.00
2023-05-08T04:49:12.646Z,86.08
2023-05-08T04:51:41.268Z,85.56
2023-05-08T04:54:10.419Z,85.08
2023-05-08T04:56:40.486Z,84.75
2023-05-08T04:59:09.418Z,84.47
2023-05-08T05:01:38.169Z,83.11
2023-05-08T05:04:07.395Z,82.49
2023-05-08T05:06:36.103Z,79.84
2023-05-08T05:09:05.442Z,78.62
2023-05-08T05:11:34.534Z,78.22
2023-05-08T05:14:04.925Z,78.58
2023-05-08T05:16:33.756Z,76.44
2023-05-08T05:19:02.755Z,74.65
2023-05-08T05:21:31.723Z,73.30
2023-05-08T05:24:00.813Z,72.93
2023-05-08T05:26:29.542Z,72.02
2023-05-08T05:28:58.644Z,71.30
2023-05-08T05:31:29.939Z,69.01
2023-05-08T05:33:59.639Z,66.64
2023-05-08T05:36:29.394Z,64.55
2023-05-08T05:38:58.780Z,63.29
2023-05-08T05:41:27.786Z,62.69
2023-05-08T05:43:56.833Z,61.82
2023-05-08T05:46:32.303Z,60.32
2023-05-08T05:49:04.975Z,59.91
2023-05-08T05:51:35.463Z,59.73
2023-05-08T05:54:04.924Z,57.54
2023-05-08T05:56:33.559Z,58.66
2023-05-08T05:59:02.756Z,56.72
2023-05-08T06:01:31.799Z,53.43
2023-05-08T06:04:00.935Z,53.21
2023-05-08T06:06:32.045Z,52.40
2023-05-08T06:09:01.532Z,51.42
2023-05-08T06:11:30.273Z,51.13
2023-05-08T06:13:59.267Z,52.57
2023-05-08T06:16:28.101Z,50.43
2023-05-08T06:18:57.186Z,49.83
2023-05-08T06:21:28.723Z,48.85
2023-05-08T06:23:58.980Z,50.21
2023-05-08T06:26:27.706Z,48.10
2023-05-08T06:28:56.825Z,47.94
2023-05-08T06:31:25.619Z,48.36
2023-05-08T06:33:54.672Z,46.24
2023-05-08T06:36:23.378Z,46.34
2023-05-08T06:38:53.484Z,46.11
2023-05-08T06:41:23.482Z,45.98
2023-05-08T06:43:52.357Z,45.61
2023-05-08T06:46:21.774Z,45.03
2023-05-08T06:48:50.926Z,43.75
2023-05-08T06:51:23.195Z,43.61
2023-05-08T06:53:52.166Z,43.27
2023-05-08T06:56:21.216Z,42.72
2023-05-08T06:59:04.577Z,44.03
2023-05-08T07:01:37.536Z,43.04
2023-05-08T07:04:06.991Z,43.02
2023-05-08T07:06:35.694Z,43.91
2023-05-08T07:09:04.784Z,42.46
2023-05-08T07:11:33.648Z,42.96
2023-05-08T07:14:04.064Z,43.32
2023-05-08T07:16:32.915Z,43.37
2023-05-08T07:19:02.015Z,42.61
2023-05-08T07:21:30.776Z,42.62
2023-05-08T07:23:59.789Z,42.87
2023-05-08T07:26:28.517Z,43.03
2023-05-08T07:28:57.573Z,43.89
2023-05-08T07:31:27.626Z,43.54
2023-05-08T07:33:56.715Z,43.44
2023-05-08T07:36:25.331Z,42.87
2023-05-08T07:38:54.281Z,43.17
2023-05-08T07:41:23.164Z,42.60
2023-05-08T07:43:52.158Z,42.47
2023-05-08T07:46:21.764Z,42.57
2023-05-08T07:48:52.073Z,42.53
2023-05-08T07:51:20.883Z,42.29
2023-05-08T07:53:51.191Z,43.74
2023-05-08T07:56:19.908Z,44.01
2023-05-08T07:58:48.877Z,43.55
2023-05-08T08:01:18.458Z,41.08
2023-05-08T08:03:47.897Z,42.16
2023-05-08T08:06:18.600Z,41.45
2023-05-08T08:08:47.597Z,42.33
2023-05-08T08:11:16.363Z,42.94
2023-05-08T08:13:45.336Z,42.44
2023-05-08T08:16:14.040Z,40.67
2023-05-08T08:18:42.997Z,41.25
2023-05-08T08:21:11.721Z,41.16
2023-05-08T08:23:42.080Z,41.33
2023-05-08T08:26:10.814Z,40.98
2023-05-08T08:28:39.724Z,41.03
2023-05-08T08:31:08.567Z,41.84
2023-05-08T08:33:37.616Z,39.99
2023-05-08T08:36:13.644Z,40.36
2023-05-08T08:38:44.047Z,40.67
2023-05-08T08:41:15.750Z,41.06
2023-05-08T08:43:44.776Z,41.28
2023-05-08T08:46:15.986Z,40.48
2023-05-08T08:48:47.958Z,39.30
2023-05-08T08:51:28.442Z,39.83
2023-05-08T08:54:12.505Z,40.02
2023-05-08T08:56:43.050Z,40.22
2023-05-08T08:59:14.521Z,38.70
2023-05-08T09:01:48.736Z,39.36
2023-05-08T09:04:18.365Z,37.89
2023-05-08T09:06:48.078Z,37.60
2023-05-08T09:09:18.404Z,38.74
2023-05-08T09:11:48.425Z,38.63
2023-05-08T09:14:17.393Z,36.55
2023-05-08T09:16:46.536Z,37.06
2023-05-08T09:19:16.517Z,35.67
2023-05-08T09:21:46.336Z,36.24
2023-05-08T09:24:15.790Z,36.25
2023-05-08T09:26:45.824Z,35.90
2023-05-08T09:29:17.268Z,35.75
2023-05-08T09:31:49.067Z,37.50
2023-05-08T09:34:27.980Z,35.80
2023-05-08T09:36:57.525Z,37.41
2023-05-08T09:39:27.653Z,36.30
2023-05-08T09:42:02.861Z,36.27
2023-05-08T09:44:46.523Z,35.87
2023-05-08T09:47:16.901Z,35.87
2023-05-08T09:49:59.303Z,36.33
2023-05-08T09:52:28.956Z,34.77
2023-05-08T09:55:02.855Z,33.90
2023-05-08T09:57:36.461Z,33.23
2023-05-08T10:00:10.324Z,32.79
2023-05-08T10:02:42.512Z,33.59
2023-05-08T10:05:26.297Z,33.42
2023-05-08T10:07:55.241Z,32.74
2023-05-08T10:10:27.483Z,32.57
2023-05-08T10:12:59.710Z,32.76
2023-05-08T10:15:32.180Z,33.62
2023-05-08T10:18:06.600Z,31.55
2023-05-08T10:20:39.921Z,28.73
2023-05-08T10:23:15.658Z,27.91
2023-05-08T10:25:48.416Z,27.81
2023-05-08T10:28:32.442Z,28.68
2023-05-08T10:31:05.506Z,29.05
2023-05-08T10:33:36.561Z,30.90
2023-05-08T10:36:07.664Z,31.45
2023-05-08T10:38:38.318Z,31.97
2023-05-08T10:41:07.806Z,31.09
2023-05-08T10:43:43.516Z,31.47
2023-05-08T10:46:23.877Z,30.45
2023-05-08T10:49:06.596Z,29.92
2023-05-08T10:51:46.336Z,29.12
2023-05-08T10:54:24.693Z,28.56
2023-05-08T10:56:53.700Z,29.44
2023-05-08T10:59:23.908Z,31.03
2023-05-08T11:01:53.504Z,31.03
2023-05-08T11:04:24.251Z,31.26
2023-05-08T11:06:54.012Z,30.67
2023-05-08T11:09:24.663Z,27.86
2023-05-08T11:12:08.339Z,27.62
2023-05-08T11:14:43.709Z,27.19
2023-05-08T11:17:12.825Z,28.10
2023-05-08T11:19:58.177Z,26.62
2023-05-08T11:22:30.200Z,27.15
2023-05-08T11:25:08.775Z,26.33
2023-05-08T11:28:20.208Z,26.86
2023-05-08T11:30:56.424Z,27.42
2023-05-08T11:33:32.080Z,26.53
2023-05-08T11:36:12.673Z,26.89
2023-05-08T11:38:44.013Z,27.73
2023-05-08T11:41:22.801Z,26.51
2023-05-08T11:44:20.543Z,25.83
2023-05-08T11:46:54.050Z,26.26
2023-05-08T11:49:29.018Z,24.76
2023-05-08T11:52:00.759Z,24.34
2023-05-08T11:54:32.746Z,24.40
2023-05-08T11:57:01.883Z,24.25
2023-05-08T11:59:36.665Z,24.64
2023-05-08T12:02:09.188Z,25.26
2023-05-08T12:04:46.902Z,26.66
2023-05-08T12:07:16.485Z,27.20
2023-05-08T12:09:47.581Z,28.30
2023-05-08T12:12:16.409Z,27.83
2023-05-08T12:14:45.395Z,28.75
2023-05-08T12:17:19.324Z,30.04
2023-05-08T12:19:48.328Z,29.89
2023-05-08T12:22:17.003Z,31.69
2023-05-08T12:24:46.103Z,31.33
2023-05-08T12:27:14.902Z,29.78
2023-05-08T12:29:46.707Z,31.19
2023-05-08T12:32:17.037Z,32.02
2023-05-08T12:34:46.378Z,31.18
2023-05-08T12:37:25.847Z,31.45
2023-05-08T12:39:55.223Z,30.44
2023-05-08T12:42:23.979Z,30.48
2023-05-08T12:44:54.329Z,30.35
2023-05-08T12:47:26.801Z,30.51
2023-05-08T12:49:59.494Z,30.47
2023-05-08T12:52:29.923Z,31.74
2023-05-08T12:54:58.977Z,30.50
2023-05-08T12:57:27.748Z,30.76
2023-05-08T13:00:06.038Z,30.83
2023-05-08T13:02:41.680Z,29.85
2023-05-08T13:05:21.818Z,30.90
2023-05-08T13:07:51.531Z,30.65
2023-05-08T13:10:23.489Z,30.97
2023-05-08T13:12:53.318Z,30.93
2023-05-08T13:15:23.953Z,31.76
2023-05-08T13:17:54.153Z,31.86
2023-05-08T13:20:23.648Z,32.65
2023-05-08T13:22:52.436Z,32.01
2023-05-08T13:25:21.363Z,30.36
2023-05-08T13:27:50.051Z,31.42
2023-05-08T13:30:19.086Z,31.29
2023-05-08T13:32:47.781Z,31.37
2023-05-08T13:35:18.929Z,30.92
2023-05-08T13:37:48.360Z,30.95
2023-05-08T13:40:18.974Z,30.40
2023-05-08T13:42:47.881Z,31.04
2023-05-08T13:45:18.589Z,30.38
2023-05-08T13:47:48.714Z,30.28
2023-05-08T13:50:21.822Z,30.11
2023-05-08T13:52:53.218Z,29.79
2023-05-08T13:55:24.342Z,30.12
2023-05-08T13:57:53.115Z,30.53
2023-05-08T14:00:22.321Z,29.24
2023-05-08T14:02:53.174Z,29.97
2023-05-08T14:05:23.797Z,30.33
2023-05-08T14:07:52.549Z,30.48
2023-05-08T14:10:21.774Z,30.53
2023-05-08T14:12:50.546Z,29.72
2023-05-08T14:15:19.755Z,30.51
2023-05-08T14:17:48.677Z,30.44
2023-05-08T14:20:17.759Z,29.21
2023-05-08T14:22:47.772Z,29.92
2023-05-08T14:25:16.926Z,29.85
2023-05-08T14:27:45.628Z,29.45
2023-05-08T14:30:16.010Z,30.08
2023-05-08T14:32:44.707Z,30.71
2023-05-08T14:35:14.439Z,29.49
2023-05-08T14:37:43.385Z,31.25
2023-05-08T14:40:14.193Z,30.13
2023-05-08T14:42:42.928Z,31.02
2023-05-08T14:45:12.926Z,31.58
2023-05-08T14:47:41.917Z,30.00
2023-05-08T14:50:12.229Z,30.05
2023-05-08T14:52:40.958Z,31.12
2023-05-08T14:55:11.429Z,30.49
2023-05-08T14:57:41.745Z,30.56
2023-05-08T15:00:12.886Z,30.36
2023-05-08T15:02:42.103Z,30.09
2023-05-08T15:05:19.204Z,29.46
2023-05-08T15:07:50.068Z,30.07
2023-05-08T15:10:19.156Z,31.04
2023-05-08T15:12:49.261Z,30.53
2023-05-08T15:15:18.296Z,30.58
2023-05-08T15:17:47.012Z,31.37
2023-05-08T15:20:15.991Z,31.15
2023-05-08T15:22:44.726Z,30.18
2023-05-08T15:25:14.418Z,30.55
2023-05-08T15:27:43.375Z,31.50
2023-05-08T15:30:15.539Z,31.09
2023-05-08T15:32:44.331Z,30.87
2023-05-08T15:35:13.749Z,31.04
2023-05-08T15:37:42.562Z,31.00
2023-05-08T15:40:13.183Z,31.18
2023-05-08T15:42:41.859Z,31.34
2023-05-08T15:45:13.051Z,32.49
2023-05-08T15:47:41.863Z,33.04
2023-05-08T15:50:11.967Z,33.22
2023-05-08T15:52:40.578Z,31.88
2023-05-08T15:55:11.190Z,33.24
2023-05-08T15:57:40.137Z,31.90
2023-05-08T16:00:10.939Z,31.44
2023-05-08T16:02:41.049Z,31.11
2023-05-08T16:05:11.210Z,30.81
2023-05-08T16:07:40.313Z,30.69
2023-05-08T16:10:11.048Z,30.87
2023-05-08T16:12:39.719Z,30.16
2023-05-08T16:15:09.578Z,30.24
2023-05-08T16:17:38.278Z,30.15
2023-05-08T16:20:12.486Z,30.95
2023-05-08T16:22:41.800Z,30.75
2023-05-08T16:25:11.857Z,31.88
2023-05-08T16:27:40.810Z,32.27
2023-05-08T16:30:11.924Z,32.50
2023-05-08T16:32:40.920Z,33.19
2023-05-08T16:35:12.185Z,32.93
2023-05-08T16:37:41.059Z,32.25
2023-05-08T16:40:11.802Z,32.52
2023-05-08T16:42:40.453Z,32.76
2023-05-08T16:45:11.406Z,34.21
2023-05-08T16:47:40.250Z,33.11
2023-05-08T16:50:12.362Z,36.04
2023-05-08T16:52:41.177Z,37.22
2023-05-08T16:55:11.546Z,36.01
2023-05-08T16:57:40.466Z,33.15
2023-05-08T17:00:10.760Z,31.76
2023-05-08T17:02:39.525Z,32.65
2023-05-08T17:05:10.762Z,32.31
2023-05-08T17:07:39.819Z,32.29
2023-05-08T17:10:10.604Z,34.53
2023-05-08T17:12:39.386Z,33.20
2023-05-08T17:15:09.765Z,32.95
2023-05-08T17:17:38.734Z,33.74
2023-05-08T17:20:11.614Z,33.79
2023-05-08T17:22:41.326Z,33.63
2023-05-08T17:25:11.595Z,34.17
2023-05-08T17:27:40.433Z,33.46
2023-05-08T17:30:12.500Z,33.87
2023-05-08T17:32:41.537Z,33.50
2023-05-08T17:35:12.203Z,34.72
2023-05-08T17:37:40.906Z,34.12
2023-05-08T17:40:11.870Z,34.79
2023-05-08T17:42:40.743Z,35.14
2023-05-08T17:45:10.407Z,35.65
2023-05-08T17:47:40.261Z,34.50
2023-05-08T17:50:11.995Z,35.92
2023-05-08T17:52:41.204Z,36.37
2023-05-08T17:55:11.582Z,36.71
2023-05-08T17:57:40.409Z,37.66
2023-05-08T18:00:11.260Z,40.67
2023-05-08T18:02:41.479Z,43.22
2023-05-08T18:05:12.050Z,44.11
2023-05-08T18:07:40.976Z,43.90
2023-05-08T18:10:10.947Z,44.21
2023-05-08T18:12:39.734Z,45.03
2023-05-08T18:15:09.911Z,43.83
2023-05-08T18:17:38.677Z,44.09
2023-05-08T18:20:09.973Z,45.11
2023-05-08T18:22:40.187Z,44.74
2023-05-08T18:25:12.607Z,44.32
2023-05-08T18:27:42.918Z,46.00
2023-05-08T18:30:14.151Z,46.51
2023-05-08T18:32:44.145Z,47.79
2023-05-08T18:35:13.663Z,46.98
2023-05-08T18:37:43.909Z,47.36
2023-05-08T18:40:14.375Z,46.95
2023-05-08T18:42:43.326Z,47.08
2023-05-08T18:45:13.148Z,48.54
2023-05-08T18:47:41.808Z,49.57
2023-05-08T18:50:12.174Z,51.32
2023-05-08T18:52:41.140Z,51.15
2023-05-08T18:55:11.817Z,51.75
2023-05-08T18:57:40.406Z,52.18
2023-05-08T19:00:10.952Z,51.49
2023-05-08T19:02:39.879Z,50.41
2023-05-08T19:05:09.663Z,52.13
2023-05-08T19:07:38.390Z,53.35
2023-05-08T19:10:09.528Z,52.47
2023-05-08T19:12:39.696Z,53.71
2023-05-08T19:15:13.313Z,52.94
2023-05-08T19:17:42.740Z,53.50
2023-05-08T19:20:14.590Z,54.34
2023-05-08T19:22:43.680Z,55.77
2023-05-08T19:25:13.635Z,56.02
2023-05-08T19:27:43.661Z,56.54
2023-05-08T19:30:13.925Z,57.53
2023-05-08T19:32:43.170Z,56.42
2023-05-08T19:35:12.203Z,55.72
2023-05-08T19:37:40.928Z,55.39
2023-05-08T19:40:11.741Z,55.57
2023-05-08T19:42:40.590Z,55.84
2023-05-08T19:45:12.655Z,56.24
2023-05-08T19:47:41.412Z,58.13
2023-05-08T19:50:12.507Z,59.14
2023-05-08T19:52:41.407Z,59.98
2023-05-08T19:55:10.833Z,60.34
2023-05-08T19:57:39.652Z,59.46
2023-05-08T20:00:12.198Z,58.37
2023-05-08T20:02:41.315Z,58.94
2023-05-08T20:05:21.812Z,59.87
2023-05-08T20:07:51.839Z,60.15
2023-05-08T20:10:20.963Z,59.95
2023-05-08T20:12:49.692Z,61.60
2023-05-08T20:15:20.580Z,62.43
2023-05-08T20:17:49.291Z,62.22
2023-05-08T20:20:18.354Z,61.43
2023-05-08T20:22:47.014Z,60.88
2023-05-08T20:25:16.244Z,60.66
2023-05-08T20:27:44.938Z,60.83
2023-05-08T20:30:14.751Z,60.88
2023-05-08T20:32:45.001Z,61.12
2023-05-08T20:35:14.905Z,61.61
2023-05-08T20:37:48.247Z,61.63
2023-05-08T20:40:17.460Z,62.58
2023-05-08T20:42:46.297Z,63.91
2023-05-08T20:45:15.247Z,61.93
2023-05-08T20:47:45.303Z,61.63
2023-05-08T20:50:16.119Z,62.19
2023-05-08T20:52:45.931Z,62.62
2023-05-08T20:55:15.198Z,62.52
2023-05-08T20:57:44.195Z,62.21
2023-05-08T21:00:14.444Z,62.58
2023-05-08T21:02:44.745Z,62.99
2023-05-08T21:05:14.142Z,63.16
2023-05-08T21:07:43.044Z,62.65
2023-05-08T21:10:13.002Z,62.89
2023-05-08T21:12:44.515Z,63.47
2023-05-08T21:15:13.829Z,62.95
2023-05-08T21:17:44.234Z,63.27
2023-05-08T21:20:14.441Z,63.19
2023-05-08T21:22:43.443Z,63.34
2023-05-08T21:25:19.176Z,63.53
2023-05-08T21:27:47.856Z,63.79
2023-05-08T21:30:16.907Z,63.54
2023-05-08T21:32:47.733Z,64.46
2023-05-08T21:35:17.413Z,64.88
2023-05-08T21:37:46.312Z,65.82
2023-05-08T21:40:15.372Z,65.53
2023-05-08T21:42:44.029Z,64.97
2023-05-08T21:45:13.469Z,65.41
2023-05-08T21:47:42.365Z,65.10
2023-05-08T21:50:13.138Z,65.67
2023-05-08T21:52:42.096Z,64.56
2023-05-08T21:55:11.690Z,64.61
2023-05-08T21:57:40.493Z,64.55
2023-05-08T22:00:10.993Z,64.98
2023-05-08T22:02:48.398Z,65.24
2023-05-08T22:05:18.960Z,66.11
2023-05-08T22:07:47.686Z,66.49
2023-05-08T22:10:16.590Z,66.14
2023-05-08T22:12:45.278Z,66.03
2023-05-08T22:15:28.581Z,66.73
2023-05-08T22:17:58.861Z,66.66
2023-05-08T22:20:29.618Z,66.78
2023-05-08T22:22:58.193Z,66.79
2023-05-08T22:25:27.393Z,67.12
2023-05-08T22:27:56.049Z,68.08
2023-05-08T22:30:25.007Z,68.18
2023-05-08T22:32:57.548Z,68.44
2023-05-08T22:35:29.016Z,68.41
2023-05-08T22:37:58.390Z,68.31
2023-05-08T22:40:28.341Z,68.87
2023-05-08T22:42:58.879Z,69.41
2023-05-08T22:45:28.919Z,69.83
2023-05-08T22:47:57.979Z,70.03
2023-05-08T22:50:28.396Z,70.12
2023-05-08T22:52:57.100Z,69.95
2023-05-08T22:55:26.018Z,69.76
2023-05-08T22:57:54.685Z,69.80
2023-05-08T23:00:23.879Z,70.18
2023-05-08T23:02:52.616Z,70.46
2023-05-08T23:05:21.801Z,70.95
2023-05-08T23:07:52.034Z,71.01
2023-05-08T23:10:20.922Z,70.90
2023-05-08T23:12:49.535Z,70.55
2023-05-08T23:15:21.090Z,70.40
2023-05-08T23:17:50.333Z,70.06
2023-05-08T23:20:19.747Z,70.13
2023-05-08T23:22:48.426Z,70.32
2023-05-08T23:25:18.788Z,70.03
2023-05-08T23:27:47.431Z,70.68
2023-05-08T23:30:17.023Z,70.79
2023-05-08T23:32:45.933Z,70.97
2023-05-08T23:35:15.201Z,71.31
2023-05-08T23:37:43.969Z,71.64
2023-05-08T23:40:14.012Z,71.41
2023-05-08T23:42:44.373Z,71.34
2023-05-08T23:45:13.661Z,70.87
2023-05-08T23:47:42.492Z,70.97
2023-05-08T23:50:13.138Z,71.29
2023-05-08T23:52:42.709Z,70.78
2023-05-08T23:55:12.328Z,71.41
2023-05-08T23:57:41.252Z,71.92
